Time;durP1;ratioP1;P1;durP2;ratioP2;P2;SDS_P1;SDS_P2;PMS_P1;PMS_P2;Temp;Humidity;BMP_temperature;BMP_pressure;BME280_temperature;BME280_humidity;BME280_pressure;Samples;Min_cycle;Max_cycle;Signal;HPM_P1;HPM_P2
2023/01/30 00:00:19;;;;;;;16.65;10.95;;;6.20;99.90;;;;;;5013482;28;20041;-67
2023/01/30 00:02:45;;;;;;;21.05;10.07;;;6.10;99.90;;;;;;5012439;28;20046;-68
2023/01/30 00:05:10;;;;;;;18.33;9.60;;;6.30;99.90;;;;;;5013296;28;20048;-68
2023/01/30 00:07:36;;;;;;;18.02;9.90;;;6.60;99.90;;;;;;5013419;28;20391;-71
2023/01/30 00:10:02;;;;;;;17.48;9.65;;;6.10;99.90;;;;;;5012231;28;20069;-71
2023/01/30 00:12:27;;;;;;;16.27;9.75;;;6.10;99.90;;;;;;5012377;28;20125;-69
2023/01/30 00:14:53;;;;;;;14.32;9.10;;;6.00;99.90;;;;;;5013743;28;20046;-70
2023/01/30 00:17:19;;;;;;;14.10;9.10;;;6.30;99.90;;;;;;5016431;28;20038;-69
2023/01/30 00:19:44;;;;;;;13.98;9.15;;;6.10;99.90;;;;;;5016210;28;20442;-71
2023/01/30 00:22:10;;;;;;;14.75;8.50;;;6.70;99.90;;;;;;5016704;28;20045;-70
2023/01/30 00:24:36;;;;;;;16.27;8.20;;;6.40;99.90;;;;;;5017481;28;20046;-72
2023/01/30 00:27:01;;;;;;;15.30;8.68;;;6.30;99.90;;;;;;5015816;28;20399;-70
2023/01/30 00:29:27;;;;;;;18.17;8.40;;;6.30;99.90;;;;;;5016552;28;20463;-68
2023/01/30 00:31:53;;;;;;;16.77;8.50;;;6.50;99.90;;;;;;5016713;28;20050;-71
2023/01/30 00:34:18;;;;;;;10.43;7.57;;;6.20;99.90;;;;;;5015058;28;20053;-71
2023/01/30 00:36:44;;;;;;;13.98;7.80;;;6.30;99.90;;;;;;5015886;28;20131;-73
2023/01/30 00:39:10;;;;;;;14.13;6.75;;;6.40;99.90;;;;;;5015656;28;20046;-70
2023/01/30 00:47:04;;;;;;;13.00;7.35;;;6.40;99.90;;;;;;5016785;28;20054;-69
2023/01/30 00:49:29;;;;;;;14.32;6.53;;;6.60;99.90;;;;;;4999153;28;20441;-70
2023/01/30 00:51:55;;;;;;;13.15;6.80;;;6.80;99.90;;;;;;5016249;28;20129;-70
2023/01/30 00:54:21;;;;;;;13.18;6.50;;;6.40;99.90;;;;;;5016236;28;20041;-71
2023/01/30 00:56:47;;;;;;;12.88;6.18;;;6.90;99.90;;;;;;4999080;28;20054;-69
2023/01/30 00:59:12;;;;;;;11.25;6.60;;;6.90;99.90;;;;;;5016254;28;20045;-72
2023/01/30 01:01:38;;;;;;;13.07;5.82;;;6.50;99.90;;;;;;5015451;28;20064;-69
2023/01/30 01:04:05;;;;;;;14.35;6.53;;;6.80;99.90;;;;;;5016863;28;20140;-69
2023/01/30 01:06:31;;;;;;;13.30;5.95;;;6.50;99.90;;;;;;5014926;28;20081;-68
2023/01/30 01:08:57;;;;;;;12.82;6.32;;;6.60;99.90;;;;;;5015997;28;20066;-70
2023/01/30 01:11:23;;;;;;;16.90;6.93;;;6.60;99.90;;;;;;5015667;28;20038;-70
2023/01/30 01:13:53;;;;;;;10.68;6.03;;;6.60;99.90;;;;;;5015692;28;20467;-69
2023/01/30 01:16:19;;;;;;;14.70;7.50;;;6.40;99.90;;;;;;5015601;28;20046;-69
2023/01/30 01:18:45;;;;;;;12.20;6.40;;;6.40;99.90;;;;;;5015513;28;20038;-69
2023/01/30 01:21:12;;;;;;;14.75;6.57;;;6.60;99.90;;;;;;5014815;28;20053;-68
2023/01/30 01:23:39;;;;;;;15.55;6.95;;;6.10;99.90;;;;;;5015793;28;20054;-68
2023/01/30 01:26:04;;;;;;;12.18;6.65;;;6.40;99.90;;;;;;5015963;28;20054;-69
2023/01/30 01:28:30;;;;;;;13.02;6.35;;;6.40;99.90;;;;;;5015991;28;20068;-69
2023/01/30 01:30:56;;;;;;;15.45;6.82;;;6.40;99.90;;;;;;5015107;28;20440;-69
2023/01/30 01:33:26;;;;;;;11.25;6.53;;;6.50;99.90;;;;;;5014476;28;20085;-69
2023/01/30 01:35:55;;;;;;;13.70;5.85;;;6.60;99.90;;;;;;5016361;28;20053;-69
2023/01/30 01:38:20;;;;;;;10.43;5.88;;;6.10;99.90;;;;;;5015499;28;20050;-72
2023/01/30 01:41:01;;;;;;;9.65;5.18;;;6.20;99.90;;;;;;5014470;28;20133;-68
2023/01/30 01:43:31;;;;;;;12.80;5.15;;;6.70;99.90;;;;;;5015267;28;20046;-68
2023/01/30 01:46:21;;;;;;;9.52;4.90;;;6.30;99.90;;;;;;5015412;28;20089;-68
2023/01/30 01:48:51;;;;;;;10.80;4.65;;;6.20;99.90;;;;;;5015371;28;20050;-68
2023/01/30 01:51:25;;;;;;;9.27;4.32;;;6.70;99.90;;;;;;5014317;28;20061;-68
2023/01/30 01:54:07;;;;;;;9.85;4.68;;;6.20;99.90;;;;;;5014319;28;20107;-69
2023/01/30 01:56:34;;;;;;;8.70;3.63;;;6.20;99.90;;;;;;5015035;28;20116;-68
2023/01/30 01:59:12;;;;;;;8.30;3.58;;;6.30;99.90;;;;;;5015199;28;20060;-68
2023/01/30 02:01:38;;;;;;;5.70;2.78;;;6.40;99.90;;;;;;5015105;28;20042;-67
2023/01/30 02:04:08;;;;;;;5.90;2.63;;;6.30;99.90;;;;;;5013507;28;20201;-68
2023/01/30 02:06:38;;;;;;;7.40;2.63;;;6.20;99.90;;;;;;5015239;28;20368;-68
2023/01/30 02:09:09;;;;;;;5.50;2.47;;;6.30;99.90;;;;;;5013144;28;20062;-69
2023/01/30 02:11:46;;;;;;;5.22;2.38;;;6.10;99.90;;;;;;5014839;28;20137;-67
2023/01/30 02:14:14;;;;;;;3.67;2.08;;;6.30;99.90;;;;;;5015339;28;20042;-68
2023/01/30 02:16:42;;;;;;;5.40;2.20;;;6.50;99.90;;;;;;5014800;28;20149;-76
2023/01/30 02:19:41;;;;;;;3.30;1.75;;;6.60;99.90;;;;;;5013563;28;20050;-68
2023/01/30 02:22:30;;;;;;;4.93;2.08;;;6.10;99.90;;;;;;5000268;28;20056;-68
2023/01/30 02:25:05;;;;;;;4.60;2.03;;;6.30;99.90;;;;;;5015212;28;20041;-68
2023/01/30 02:27:59;;;;;;;7.30;2.10;;;6.30;99.90;;;;;;5014954;28;20103;-68
2023/01/30 02:31:05;;;;;;;5.03;2.30;;;6.20;99.90;;;;;;5007656;28;20141;-67
2023/01/30 02:34:18;;;;;;;5.88;2.55;;;6.50;99.90;;;;;;5014503;28;20052;-67
2023/01/30 02:37:09;;;;;;;7.70;2.97;;;6.40;99.90;;;;;;4972964;28;20090;-68
2023/01/30 02:39:59;;;;;;;6.65;2.83;;;6.30;99.90;;;;;;4972979;28;20049;-67
2023/01/30 02:42:37;;;;;;;7.95;2.97;;;6.30;99.90;;;;;;5005909;28;20058;-67
2023/01/30 02:45:20;;;;;;;9.23;3.33;;;6.60;99.90;;;;;;5014290;28;20049;-68
2023/01/30 02:48:05;;;;;;;8.73;3.78;;;6.70;99.90;;;;;;5014599;28;20137;-68
2023/01/30 02:50:36;;;;;;;9.38;2.90;;;6.40;99.90;;;;;;5015026;28;20053;-68
2023/01/30 02:53:04;;;;;;;10.43;3.78;;;6.50;99.90;;;;;;5014119;28;20049;-66
2023/01/30 02:55:30;;;;;;;9.75;4.03;;;6.60;99.90;;;;;;4996493;28;20057;-67
2023/01/30 02:57:56;;;;;;;11.25;4.72;;;6.60;99.90;;;;;;5014111;28;20049;-67
2023/01/30 03:01:02;;;;;;;7.97;3.30;;;6.90;99.90;;;;;;5012771;28;20056;-69
2023/01/30 03:04:02;;;;;;;9.70;3.72;;;6.60;99.90;;;;;;5014338;28;20439;-68
2023/01/30 03:06:43;;;;;;;11.18;3.20;;;6.80;99.90;;;;;;5013933;28;20046;-68
2023/01/30 03:09:28;;;;;;;8.15;3.08;;;6.70;99.90;;;;;;5013899;28;20058;-67
2023/01/30 03:11:57;;;;;;;11.68;2.97;;;6.90;99.90;;;;;;5013289;28;20452;-73
2023/01/30 03:14:29;;;;;;;10.00;3.38;;;6.80;99.90;;;;;;5013824;28;20049;-67
2023/01/30 03:16:57;;;;;;;8.93;2.70;;;6.90;99.90;;;;;;5013731;28;20154;-67
2023/01/30 03:19:25;;;;;;;10.57;2.85;;;6.80;99.90;;;;;;4997328;28;20050;-67
2023/01/30 03:21:51;;;;;;;10.23;3.03;;;6.90;99.90;;;;;;5012842;28;20046;-68
2023/01/30 03:24:17;;;;;;;11.85;3.10;;;6.80;99.90;;;;;;5014317;28;20046;-72
2023/01/30 03:26:47;;;;;;;12.88;3.28;;;6.90;99.90;;;;;;5013743;28;20057;-69
2023/01/30 03:29:14;;;;;;;9.15;2.38;;;6.80;99.90;;;;;;5013292;28;20438;-69
2023/01/30 03:31:40;;;;;;;10.13;2.83;;;7.10;99.90;;;;;;4996390;28;20078;-69
2023/01/30 03:34:05;;;;;;;12.05;2.70;;;6.90;99.90;;;;;;5013569;28;20038;-71
2023/01/30 03:36:31;;;;;;;8.48;2.85;;;6.80;99.90;;;;;;5012551;28;20534;-68
2023/01/30 03:38:57;;;;;;;10.27;2.03;;;7.20;99.90;;;;;;5012960;28;20045;-66
2023/01/30 03:41:23;;;;;;;13.75;2.40;;;6.90;99.90;;;;;;5014403;28;20054;-68
2023/01/30 03:43:48;;;;;;;9.00;2.42;;;7.00;99.90;;;;;;5013535;28;20049;-71
2023/01/30 03:46:14;;;;;;;8.25;2.10;;;6.90;99.90;;;;;;5013768;28;20053;-70
2023/01/30 03:48:40;;;;;;;7.47;1.88;;;6.70;99.90;;;;;;4996505;28;20494;-70
2023/01/30 03:51:05;;;;;;;14.02;2.92;;;7.00;99.90;;;;;;5016504;28;20056;-68
2023/01/30 03:53:31;;;;;;;7.72;1.77;;;6.80;99.90;;;;;;5016358;28;20145;-70
2023/01/30 03:55:57;;;;;;;13.18;2.28;;;6.70;99.90;;;;;;5017069;28;20042;-72
2023/01/30 03:58:22;;;;;;;12.95;2.00;;;6.90;99.90;;;;;;5017214;28;20345;-76
2023/01/30 04:00:48;;;;;;;6.45;1.67;;;6.70;99.90;;;;;;5018056;28;20054;-71
2023/01/30 04:03:14;;;;;;;12.05;1.98;;;6.60;99.90;;;;;;5016325;28;20100;-76
2023/01/30 04:05:42;;;;;;;12.32;2.78;;;6.50;99.90;;;;;;4999839;28;20053;-70
2023/01/30 04:08:09;;;;;;;12.77;2.10;;;6.70;99.90;;;;;;5017222;28;20053;-71
2023/01/30 04:10:34;;;;;;;10.38;2.17;;;6.40;99.90;;;;;;5015965;28;20108;-75
2023/01/30 04:13:00;;;;;;;15.80;1.70;;;6.40;99.90;;;;;;5017084;28;20054;-68
2023/01/30 04:15:26;;;;;;;9.57;1.55;;;6.70;99.90;;;;;;5017489;28;20041;-68
2023/01/30 04:17:52;;;;;;;13.15;2.00;;;6.50;99.90;;;;;;5016989;28;20046;-72
2023/01/30 04:20:19;;;;;;;10.23;2.85;;;6.70;99.90;;;;;;5016931;28;20046;-69
2023/01/30 04:22:45;;;;;;;7.93;1.48;;;6.30;99.90;;;;;;5017010;28;20057;-68
2023/01/30 04:25:10;;;;;;;12.88;2.10;;;6.60;99.90;;;;;;5016567;28;20046;-69
2023/01/30 04:27:36;;;;;;;15.00;2.30;;;6.40;99.90;;;;;;5016937;28;20085;-69
2023/01/30 04:30:03;;;;;;;11.50;2.08;;;6.60;99.90;;;;;;5015640;28;20053;-74
2023/01/30 04:32:29;;;;;;;9.43;1.80;;;6.20;99.90;;;;;;5016077;28;20131;-72
2023/01/30 04:34:54;;;;;;;9.15;1.75;;;6.30;99.90;;;;;;5015475;28;20042;-71
2023/01/30 04:37:21;;;;;;;15.15;2.55;;;6.40;99.90;;;;;;5015464;28;20045;-79
2023/01/30 04:39:47;;;;;;;10.93;1.60;;;6.20;99.90;;;;;;5016845;28;20546;-71
2023/01/30 04:42:12;;;;;;;13.30;1.77;;;6.10;99.90;;;;;;5016589;28;20088;-69
2023/01/30 04:44:38;;;;;;;10.32;2.97;;;6.30;99.90;;;;;;5016501;28;20050;-74
2023/01/30 04:47:04;;;;;;;10.48;1.65;;;6.40;99.90;;;;;;5016466;28;20081;-70
2023/01/30 04:49:29;;;;;;;12.98;1.80;;;6.40;99.90;;;;;;5017036;28;20054;-70
2023/01/30 04:51:55;;;;;;;9.75;1.83;;;6.40;99.90;;;;;;5016444;28;20479;-69
2023/01/30 04:54:21;;;;;;;12.75;1.98;;;6.00;99.90;;;;;;5016784;28;20174;-69
2023/01/30 04:56:47;;;;;;;14.75;2.00;;;6.20;99.90;;;;;;5016301;28;20050;-69
2023/01/30 04:59:13;;;;;;;11.55;2.10;;;6.10;99.90;;;;;;5016233;28;20092;-68
2023/01/30 05:01:39;;;;;;;9.68;1.90;;;6.50;99.90;;;;;;5015459;28;20056;-69
2023/01/30 05:04:06;;;;;;;11.55;1.83;;;6.30;99.90;;;;;;5015422;28;20093;-72
2023/01/30 05:06:32;;;;;;;16.63;1.92;;;6.10;99.90;;;;;;5014930;28;20081;-70
2023/01/30 05:08:58;;;;;;;12.07;1.52;;;5.90;99.90;;;;;;5016206;28;20095;-70
2023/01/30 05:11:25;;;;;;;13.98;1.88;;;5.90;99.90;;;;;;5016130;28;20053;-74
2023/01/30 05:13:52;;;;;;;15.00;1.70;;;6.20;99.90;;;;;;5014983;28;20050;-70
2023/01/30 05:16:19;;;;;;;7.93;1.70;;;5.80;99.90;;;;;;5016010;28;20123;-68
2023/01/30 05:18:45;;;;;;;13.60;2.70;;;5.70;99.90;;;;;;5014920;28;20486;-74
2023/01/30 05:21:19;;;;;;;9.98;1.65;;;5.90;99.90;;;;;;5015802;28;20046;-69
2023/01/30 05:23:45;;;;;;;12.82;2.63;;;6.10;99.90;;;;;;5016457;28;20046;-70
2023/01/30 05:26:12;;;;;;;12.90;2.40;;;5.80;99.90;;;;;;5015736;28;20049;-69
2023/01/30 05:28:38;;;;;;;12.27;1.98;;;5.90;99.90;;;;;;5015765;28;20128;-70
2023/01/30 05:31:06;;;;;;;12.32;2.08;;;5.80;99.90;;;;;;4999205;28;20157;-71
2023/01/30 05:33:33;;;;;;;11.48;2.00;;;6.00;99.90;;;;;;5015559;28;20128;-69
2023/01/30 05:35:59;;;;;;;14.85;2.63;;;5.90;99.90;;;;;;5015582;28;20060;-69
2023/01/30 05:38:25;;;;;;;15.50;1.75;;;6.00;99.90;;;;;;5015485;28;20136;-76
2023/01/30 05:41:02;;;;;;;15.25;2.00;;;5.80;99.90;;;;;;5015409;28;20111;-69
2023/01/30 05:43:29;;;;;;;17.48;1.77;;;5.80;99.90;;;;;;4998225;28;20119;-68
2023/01/30 05:45:57;;;;;;;12.68;2.17;;;5.80;99.90;;;;;;5014226;28;20050;-69
2023/01/30 05:48:23;;;;;;;13.88;1.88;;;6.10;99.90;;;;;;5014435;28;20049;-70
2023/01/30 05:50:53;;;;;;;14.98;1.85;;;6.00;99.90;;;;;;5015260;28;20129;-69
2023/01/30 05:53:20;;;;;;;12.88;1.40;;;5.80;99.90;;;;;;5015747;28;20060;-69
2023/01/30 05:55:45;;;;;;;12.75;1.95;;;6.00;99.90;;;;;;5014006;28;20056;-69
2023/01/30 05:58:11;;;;;;;17.33;2.40;;;6.10;99.90;;;;;;5015180;28;20050;-68
2023/01/30 06:00:37;;;;;;;11.75;2.33;;;5.80;99.90;;;;;;5015308;28;20089;-69
2023/01/30 06:03:03;;;;;;;13.35;2.08;;;5.90;99.90;;;;;;5013751;28;20053;-70
2023/01/30 06:05:29;;;;;;;14.13;1.77;;;6.10;99.90;;;;;;4997316;28;20068;-68
2023/01/30 06:07:54;;;;;;;11.85;1.80;;;5.90;99.90;;;;;;5014551;28;20065;-76
2023/01/30 06:10:20;;;;;;;12.75;2.10;;;6.10;99.90;;;;;;5014357;28;20049;-72
2023/01/30 06:12:46;;;;;;;16.50;2.30;;;5.90;99.90;;;;;;5012398;28;20140;-68
2023/01/30 06:15:11;;;;;;;14.07;2.40;;;5.90;99.90;;;;;;5014206;28;20045;-68
2023/01/30 06:17:41;;;;;;;17.48;2.85;;;5.80;99.90;;;;;;5014140;28;20474;-68
2023/01/30 06:20:08;;;;;;;15.75;2.42;;;6.40;99.90;;;;;;5014510;28;20054;-68
2023/01/30 06:22:34;;;;;;;11.35;1.90;;;6.00;99.90;;;;;;5015239;28;20050;-68
2023/01/30 06:24:59;;;;;;;14.57;1.85;;;5.70;99.90;;;;;;5014972;28;20041;-69
2023/01/30 06:27:25;;;;;;;14.63;2.47;;;5.90;99.90;;;;;;5013154;28;20050;-68
2023/01/30 06:29:51;;;;;;;12.45;2.28;;;6.10;99.90;;;;;;5014866;28;20050;-75
2023/01/30 06:32:16;;;;;;;11.07;1.92;;;5.70;99.90;;;;;;4998105;28;20466;-69
2023/01/30 06:34:42;;;;;;;12.23;1.92;;;6.00;99.90;;;;;;4997639;28;20041;-68
2023/01/30 06:37:08;;;;;;;16.13;2.08;;;6.00;99.90;;;;;;5014440;28;20056;-70
2023/01/30 06:39:33;;;;;;;13.50;1.92;;;6.10;99.90;;;;;;5014179;28;20046;-69
2023/01/30 06:41:59;;;;;;;12.52;2.03;;;5.70;99.90;;;;;;5014017;28;20053;-69
2023/01/30 06:44:25;;;;;;;20.52;2.03;;;6.10;99.90;;;;;;5013217;28;20042;-68
2023/01/30 06:46:51;;;;;;;11.82;2.60;;;6.10;99.90;;;;;;5013274;28;20580;-68
2023/01/30 06:49:17;;;;;;;15.10;2.05;;;5.70;99.90;;;;;;5014055;28;20518;-70
2023/01/30 06:51:43;;;;;;;15.32;1.83;;;6.00;99.90;;;;;;5012944;28;20049;-69
2023/01/30 06:54:09;;;;;;;17.50;2.50;;;6.10;99.90;;;;;;5014108;28;20046;-70
2023/01/30 06:56:34;;;;;;;12.77;1.40;;;6.10;99.90;;;;;;5012965;28;20483;-69
2023/01/30 06:59:00;;;;;;;14.85;2.25;;;5.80;99.90;;;;;;5014574;28;20050;-69
2023/01/30 07:01:26;;;;;;;13.20;1.95;;;5.80;99.90;;;;;;5013421;28;20394;-68
2023/01/30 07:03:51;;;;;;;10.88;1.70;;;6.00;99.90;;;;;;5014335;28;20049;-69
2023/01/30 07:06:17;;;;;;;18.90;3.53;;;6.00;99.90;;;;;;5014712;28;20046;-68
2023/01/30 07:08:43;;;;;;;10.80;1.77;;;6.10;99.90;;;;;;5013697;28;20407;-70
2023/01/30 07:11:09;;;;;;;12.60;2.22;;;6.00;99.90;;;;;;5013909;28;20069;-70
2023/01/30 07:13:35;;;;;;;13.32;1.98;;;5.80;99.90;;;;;;5013919;28;20045;-70
2023/01/30 07:16:00;;;;;;;17.92;2.17;;;5.80;99.90;;;;;;5013885;28;20565;-72
2023/01/30 07:18:26;;;;;;;14.23;2.10;;;6.20;99.90;;;;;;5013816;28;20050;-72
2023/01/30 07:20:52;;;;;;;20.25;3.05;;;5.90;99.90;;;;;;5013856;28;20072;-72
2023/01/30 07:23:18;;;;;;;14.23;2.30;;;6.00;99.90;;;;;;5013658;28;20046;-70
2023/01/30 07:25:43;;;;;;;13.23;2.42;;;6.10;99.90;;;;;;5013570;28;20040;-71
2023/01/30 07:28:09;;;;;;;17.10;2.45;;;5.90;99.90;;;;;;5013773;28;20121;-70
2023/01/30 07:30:35;;;;;;;15.73;1.90;;;6.30;99.90;;;;;;4996186;28;20096;-70
2023/01/30 07:33:03;;;;;;;12.18;1.90;;;6.00;99.90;;;;;;5014225;28;20049;-73
2023/01/30 07:35:31;;;;;;;9.20;2.20;;;6.00;99.90;;;;;;5013873;28;20050;-72
2023/01/30 07:37:57;;;;;;;12.02;1.85;;;5.90;99.90;;;;;;5013649;28;20529;-69
2023/01/30 07:40:23;;;;;;;25.73;3.10;;;6.20;99.90;;;;;;5013080;28;20057;-72
2023/01/30 07:43:04;;;;;;;11.07;1.83;;;6.30;99.90;;;;;;5012402;28;20129;-71
2023/01/30 07:45:47;;;;;;;14.43;2.38;;;6.40;99.90;;;;;;5012676;28;20058;-74
2023/01/30 07:48:17;;;;;;;19.02;4.18;;;6.00;99.90;;;;;;5013712;28;20049;-71
2023/01/30 07:50:44;;;;;;;13.13;2.17;;;5.80;99.90;;;;;;4996784;28;20081;-72
2023/01/30 07:53:12;;;;;;;13.10;2.08;;;5.90;99.90;;;;;;5013524;28;20384;-74
2023/01/30 07:55:37;;;;;;;16.40;2.55;;;6.30;99.90;;;;;;5013680;28;20471;-76
2023/01/30 07:58:03;;;;;;;13.82;2.25;;;6.10;99.90;;;;;;5013432;28;20049;-71
2023/01/30 08:00:29;;;;;;;13.43;2.08;;;6.40;99.90;;;;;;5014027;28;20057;-76
2023/01/30 08:02:55;;;;;;;15.32;2.83;;;6.30;99.90;;;;;;4980385;28;20085;-70
2023/01/30 08:05:21;;;;;;;15.95;2.63;;;6.20;99.90;;;;;;5012584;28;20111;-70
2023/01/30 08:07:46;;;;;;;11.07;2.05;;;6.20;99.90;;;;;;5013047;28;20046;-70
2023/01/30 08:10:13;;;;;;;18.27;3.35;;;6.20;99.90;;;;;;5012954;28;20495;-71
2023/01/30 08:12:39;;;;;;;14.93;2.10;;;6.20;99.90;;;;;;5013798;28;20046;-70
2023/01/30 08:15:06;;;;;;;15.73;2.10;;;6.20;99.90;;;;;;5014172;28;20387;-72
2023/01/30 08:17:32;;;;;;;14.48;2.05;;;6.20;99.90;;;;;;5012139;28;20050;-70
2023/01/30 08:19:58;;;;;;;12.27;1.75;;;6.20;99.90;;;;;;5012146;28;20058;-72
2023/01/30 08:22:24;;;;;;;13.07;2.55;;;6.20;99.90;;;;;;5012069;28;20045;-71
2023/01/30 08:24:49;;;;;;;11.38;1.92;;;6.50;99.90;;;;;;4979778;28;20053;-70
2023/01/30 08:27:15;;;;;;;12.57;2.13;;;6.40;99.90;;;;;;5013090;28;20133;-69
2023/01/30 08:29:42;;;;;;;19.05;2.45;;;6.20;99.90;;;;;;5013199;28;20045;-78
2023/01/30 08:32:08;;;;;;;12.18;2.20;;;6.30;99.90;;;;;;5012727;28;20460;-71
2023/01/30 08:34:34;;;;;;;12.30;2.60;;;6.00;99.90;;;;;;5011929;28;20050;-70
2023/01/30 08:37:00;;;;;;;14.02;2.20;;;6.20;99.90;;;;;;4998698;28;20050;-74
2023/01/30 08:39:26;;;;;;;11.23;1.80;;;6.40;99.90;;;;;;5016833;28;20100;-76
2023/01/30 08:41:52;;;;;;;14.18;1.80;;;6.20;99.90;;;;;;5015708;28;20046;-74
2023/01/30 08:44:17;;;;;;;12.45;2.22;;;6.50;99.90;;;;;;5020146;28;20042;-67
2023/01/30 08:46:43;;;;;;;12.27;2.22;;;6.30;99.90;;;;;;5016414;28;20046;-70
2023/01/30 08:49:09;;;;;;;16.88;1.75;;;6.60;99.90;;;;;;5016616;28;20211;-72
2023/01/30 08:51:35;;;;;;;9.20;2.60;;;6.70;99.90;;;;;;5015663;28;20072;-72
2023/01/30 08:54:01;;;;;;;10.52;1.85;;;6.60;99.90;;;;;;5017048;28;20046;-71
2023/01/30 08:56:27;;;;;;;17.77;2.53;;;6.40;99.90;;;;;;5016936;28;20124;-77
2023/01/30 08:58:52;;;;;;;14.32;1.85;;;6.40;99.90;;;;;;5017371;28;20530;-73
2023/01/30 09:01:18;;;;;;;12.30;2.25;;;6.40;99.90;;;;;;5019069;28;20060;-72
2023/01/30 09:03:44;;;;;;;14.50;3.08;;;6.40;99.90;;;;;;5015608;28;20054;-71
2023/01/30 09:06:10;;;;;;;14.77;1.92;;;6.60;99.90;;;;;;5017112;28;20069;-71
2023/01/30 09:08:35;;;;;;;18.08;1.80;;;6.40;99.90;;;;;;5014896;28;20069;-73
2023/01/30 09:11:03;;;;;;;16.75;2.13;;;6.50;99.90;;;;;;4999832;28;20092;-76
2023/01/30 09:13:29;;;;;;;14.10;2.10;;;6.40;99.90;;;;;;5016137;28;20049;-77
2023/01/30 09:15:56;;;;;;;16.35;2.53;;;6.50;99.90;;;;;;5016324;28;20038;-71
2023/01/30 09:18:22;;;;;;;12.07;1.70;;;6.60;99.90;;;;;;5016088;28;20041;-72
2023/01/30 09:20:48;;;;;;;11.98;2.38;;;6.50;99.90;;;;;;5016097;28;20085;-71
2023/01/30 09:23:14;;;;;;;14.45;2.13;;;6.50;99.90;;;;;;5015731;28;20053;-78
2023/01/30 09:25:40;;;;;;;12.63;2.35;;;6.70;99.90;;;;;;5015961;28;20053;-72
2023/01/30 09:28:06;;;;;;;14.32;1.77;;;6.60;99.90;;;;;;5014750;28;20046;-71
2023/01/30 09:30:33;;;;;;;12.93;2.20;;;6.60;99.90;;;;;;5015583;28;20468;-77
2023/01/30 09:32:58;;;;;;;17.55;2.05;;;6.60;99.90;;;;;;5014833;28;20384;-71
2023/01/30 09:35:24;;;;;;;18.80;2.35;;;6.70;99.90;;;;;;5014560;28;20096;-71
2023/01/30 09:37:52;;;;;;;11.30;2.17;;;6.90;99.90;;;;;;5015723;28;20086;-70
2023/01/30 09:40:25;;;;;;;17.20;2.53;;;6.50;99.90;;;;;;5015049;28;20161;-71
2023/01/30 09:43:14;;;;;;;12.55;2.05;;;6.60;99.90;;;;;;5016180;28;20053;-77
2023/01/30 09:46:02;;;;;;;15.35;2.35;;;6.80;99.90;;;;;;5009684;28;20089;-68
2023/01/30 09:48:55;;;;;;;16.27;3.10;;;6.60;99.90;;;;;;5015612;28;20510;-74
2023/01/30 09:51:34;;;;;;;11.55;2.33;;;6.50;99.90;;;;;;5014157;28;20046;-66
2023/01/30 09:54:14;;;;;;;17.83;2.63;;;6.40;99.90;;;;;;5014588;28;20120;-67
2023/01/30 09:56:40;;;;;;;13.05;2.47;;;6.40;99.90;;;;;;5015072;28;20514;-74
2023/01/30 09:59:14;;;;;;;11.88;2.63;;;6.70;99.90;;;;;;5014177;28;20418;-65
2023/01/30 10:02:02;;;;;;;13.98;2.60;;;6.70;99.90;;;;;;5015871;28;20100;-65
2023/01/30 10:04:34;;;;;;;13.00;2.13;;;6.40;99.90;;;;;;5015542;28;20089;-67
2023/01/30 10:07:23;;;;;;;10.40;1.98;;;6.50;99.90;;;;;;5015046;28;20042;-66
2023/01/30 10:10:02;;;;;;;16.52;2.65;;;6.50;99.90;;;;;;5015350;28;20065;-73
2023/01/30 10:12:43;;;;;;;18.65;2.88;;;6.60;99.90;;;;;;5015427;28;20096;-66
2023/01/30 10:15:27;;;;;;;15.50;2.40;;;6.60;99.90;;;;;;4998190;28;20046;-65
2023/01/30 10:18:04;;;;;;;17.23;2.97;;;6.70;99.90;;;;;;5014415;28;20140;-70
2023/01/30 10:20:42;;;;;;;15.95;2.85;;;6.80;99.90;;;;;;5014809;28;20052;-65
2023/01/30 10:23:46;;;;;;;16.27;2.95;;;7.20;99.90;;;;;;5015158;28;20471;-66
2023/01/30 10:26:23;;;;;;;;;;;6.80;99.90;;;;;;5014210;28;20407;-75
2023/01/30 10:28:57;;;;;;;16.10;2.50;;;7.10;99.90;;;;;;5015340;28;19926;-66
2023/01/30 10:31:27;;;;;;;21.42;3.00;;;7.00;99.90;;;;;;5014752;28;20048;-71
2023/01/30 10:34:03;;;;;;;18.73;3.10;;;7.00;99.90;;;;;;5014499;28;20451;-66
2023/01/30 10:36:45;;;;;;;14.25;2.38;;;7.10;99.90;;;;;;5013345;28;20050;-69
2023/01/30 10:39:46;;;;;;;16.40;2.28;;;7.20;99.90;;;;;;5015657;28;20037;-68
2023/01/30 10:42:19;;;;;;;7.20;1.58;;;7.20;99.90;;;;;;4984629;28;20066;-67
2023/01/30 10:44:46;;;;;;;8.40;1.40;;;7.20;99.90;;;;;;5014617;28;20187;-68
2023/01/30 10:47:21;;;;;;;8.82;0.90;;;6.60;99.90;;;;;;5013565;28;20120;-69
2023/01/30 10:49:52;;;;;;;8.68;0.90;;;6.30;99.90;;;;;;5014747;28;20052;-65
2023/01/30 10:52:39;;;;;;;3.75;0.55;;;6.60;99.90;;;;;;5014941;28;20050;-76
2023/01/30 10:55:30;;;;;;;5.80;0.70;;;6.20;99.90;;;;;;5013346;28;20050;-67
2023/01/30 10:58:12;;;;;;;4.10;0.90;;;6.20;99.90;;;;;;5014773;28;20049;-65
2023/01/30 11:01:00;;;;;;;6.63;0.60;;;6.10;99.90;;;;;;5013347;28;20048;-69
2023/01/30 11:03:45;;;;;;;6.47;0.50;;;6.10;99.90;;;;;;5013955;28;20041;-69
2023/01/30 11:06:16;;;;;;;6.60;0.55;;;6.10;99.90;;;;;;5013659;28;20050;-75
2023/01/30 11:08:42;;;;;;;4.43;0.73;;;6.30;99.90;;;;;;5012706;28;20111;-73
2023/01/30 11:11:28;;;;;;;5.30;0.70;;;6.40;99.90;;;;;;5014004;28;20411;-68
2023/01/30 11:14:08;;;;;;;7.85;0.82;;;6.30;99.90;;;;;;5013018;28;20116;-68
2023/01/30 11:16:46;;;;;;;7.45;0.70;;;6.20;99.90;;;;;;5014072;28;20056;-68
2023/01/30 11:19:14;;;;;;;7.65;1.02;;;7.10;99.90;;;;;;5013183;28;20383;-66
2023/01/30 11:21:42;;;;;;;4.75;0.90;;;6.30;99.90;;;;;;5013912;28;20089;-67
2023/01/30 11:24:23;;;;;;;9.25;1.50;;;6.40;99.90;;;;;;5013948;28;20096;-72
2023/01/30 11:26:51;;;;;;;6.07;1.60;;;6.40;99.90;;;;;;5012751;28;20042;-69
2023/01/30 11:29:32;;;;;;;6.22;1.13;;;6.50;99.90;;;;;;5013738;28;20053;-66
2023/01/30 11:32:04;;;;;;;6.60;0.80;;;7.10;99.90;;;;;;5012540;28;20483;-68
2023/01/30 11:34:30;;;;;;;8.75;2.00;;;6.60;99.90;;;;;;5013524;28;20041;-67
2023/01/30 11:37:14;;;;;;;8.20;1.38;;;7.10;99.90;;;;;;5017402;28;20053;-66
2023/01/30 11:39:50;;;;;;;8.52;1.48;;;7.20;99.90;;;;;;5012792;28;20486;-75
2023/01/30 11:42:18;;;;;;;7.13;1.10;;;7.10;99.90;;;;;;5014099;28;20120;-71
2023/01/30 11:44:44;;;;;;;10.60;1.60;;;6.90;99.90;;;;;;5013704;28;20049;-64
2023/01/30 11:47:22;;;;;;;9.55;1.33;;;7.20;99.90;;;;;;5012691;28;20046;-65
2023/01/30 11:49:53;;;;;;;9.20;1.40;;;7.20;99.90;;;;;;5013201;28;20108;-66
2023/01/30 11:52:24;;;;;;;10.23;2.53;;;7.30;99.90;;;;;;5013955;28;20096;-65
2023/01/30 11:54:52;;;;;;;14.07;2.40;;;7.20;99.90;;;;;;5013269;28;20380;-69
2023/01/30 11:57:19;;;;;;;10.15;1.40;;;6.90;99.90;;;;;;5013699;28;20050;-64
2023/01/30 11:59:52;;;;;;;8.07;1.25;;;7.20;99.90;;;;;;5013620;28;20046;-67
2023/01/30 12:02:30;;;;;;;12.82;1.63;;;6.90;99.90;;;;;;5012686;28;20545;-67
2023/01/30 12:05:18;;;;;;;8.52;1.30;;;7.00;99.90;;;;;;5012487;28;20042;-65
2023/01/30 12:07:47;;;;;;;11.32;2.05;;;6.80;99.90;;;;;;5013509;28;20049;-64
2023/01/30 12:10:31;;;;;;;11.90;2.13;;;6.80;99.90;;;;;;5014963;28;20395;-64
2023/01/30 12:13:02;;;;;;;14.40;1.83;;;6.90;99.90;;;;;;5017350;28;20049;-70
2023/01/30 12:15:33;;;;;;;14.25;1.52;;;6.80;99.90;;;;;;5018099;28;20057;-68
2023/01/30 12:18:22;;;;;;;12.10;1.63;;;7.10;99.90;;;;;;5017297;28;20133;-67
2023/01/30 12:20:58;;;;;;;11.98;1.60;;;7.00;99.90;;;;;;5017182;28;20049;-68
2023/01/30 12:23:37;;;;;;;11.30;2.03;;;6.80;99.90;;;;;;5017081;28;20430;-73
2023/01/30 12:26:15;;;;;;;11.30;2.17;;;7.00;99.90;;;;;;5017666;28;20054;-66
2023/01/30 12:28:52;;;;;;;9.50;1.95;;;6.80;99.90;;;;;;5017803;28;20052;-66
2023/01/30 12:31:32;;;;;;;13.30;2.35;;;7.00;99.90;;;;;;5016473;28;20460;-68
2023/01/30 12:33:58;;;;;;;10.65;1.70;;;6.90;99.90;;;;;;5015603;28;20133;-66
2023/01/30 12:36:30;;;;;;;10.73;1.80;;;6.90;99.90;;;;;;5016789;28;20046;-67
2023/01/30 12:39:12;;;;;;;17.58;2.88;;;6.90;99.90;;;;;;5016793;28;20045;-67
2023/01/30 12:41:46;;;;;;;12.50;1.95;;;6.90;99.90;;;;;;5016316;28;20143;-73
2023/01/30 12:45:00;;;;;;;12.32;1.92;;;7.10;99.90;;;;;;5017166;28;20049;-67
2023/01/30 12:47:44;;;;;;;14.35;3.38;;;7.10;99.90;;;;;;4975596;28;20082;-72
2023/01/30 12:50:53;;;;;;;12.27;2.72;;;6.90;99.90;;;;;;4960070;28;20046;-72
2023/01/30 12:53:30;;;;;;;10.63;1.88;;;7.00;99.90;;;;;;4973239;28;20082;-67
2023/01/30 12:56:31;;;;;;;14.68;3.55;;;7.00;99.90;;;;;;5011481;28;20072;-67
2023/01/30 12:59:21;;;;;;;14.25;2.58;;;7.10;99.90;;;;;;4993563;28;20195;-67
2023/01/30 13:02:18;;;;;;;13.13;2.08;;;7.20;99.90;;;;;;5016251;28;20041;-67
2023/01/30 13:05:20;;;;;;;12.32;1.70;;;7.10;99.90;;;;;;4999600;28;20383;-71
2023/01/30 13:07:54;;;;;;;17.73;2.35;;;7.20;99.90;;;;;;5016253;28;20050;-67
2023/01/30 13:10:25;;;;;;;13.48;2.50;;;7.20;99.90;;;;;;5016135;28;20049;-75
2023/01/30 13:13:30;;;;;;;13.00;2.30;;;7.30;99.90;;;;;;5016013;28;20060;-68
2023/01/30 13:16:23;;;;;;;13.77;2.47;;;7.10;99.90;;;;;;5014688;28;20038;-69